Gent, Belgium

7:00 AM CET op 18 januari 2017 (GMT +0100)
Sas van Gent | | Change Station

Hoogte 3 ft 51.22 °N, 3.79 °E | Updated 6 minutes ago

Gedeeltelijk bewolkt
Gedeeltelijk bewolkt
24.6 °F
Voelt als 20 °F
N
4.0
Wind Variabel Wind van OZO
Gusts 7.0 mijl/u

Vandaag
Hoog -- | Laag -- °F
--% Kans op neerslag
Gisteren
Hoog -- | Laag -- °F
Precip. -- inches
Druk 30.69 inches
Zicht 1.4 mijlen
Wolken Merendeels bewolkt 400 ft
Gevoelstemperatuur 20 °F
Dauwpunt 24 °F
Vochtigheid 96%
Neerslag 0.00 inches
Dikte sneeuw Niet beschikbaar.
8:39 AM 5:11 PM
Afnemende maan, 66% visible
METAR EBAW 180550Z 06006KT 010V090 2200 BR BKN004 M04/M05 Q1039 NOSIG
Druk 30.69 inches
Zicht 1.4 mijlen
Wolken Merendeels bewolkt 400 ft
Gevoelstemperatuur 20 °F
Dauwpunt 24 °F
Vochtigheid 96%
Neerslag 0.00 inches
Dikte sneeuw Niet beschikbaar.
8:39 AM 5:11 PM
Afnemende maan, 66% visible
METAR EBAW 180550Z 06006KT 010V090 2200 BR BKN004 M04/M05 Q1039 NOSIG

Get Your Daily Forecast Email!

Thanks for signing up!

Be on the lookout for a verification email in your inbox.

You'll start receiving the daily forecast at 8 AM.

×

10-Day Weather Forecast

×

Almanac

Astronomie

Jan. 18, 2017 Opkomst Ondergang
Werkelijke tijd
Burgerlijke schemering
Nautische schemering
Astronomische schemering
Maan
Golflengte van het zichtbare licht
Daglengte
Tomorrow will be .
, % of the Moon is Illuminated

Extremen vandaag

Country Highs Country Lows

Community

WunderPhotos

Upload Photos

1,962,540 foto’s ge-upload!

WunderBlog® & News

Nearby

Luchtkwaliteit

  Luchtkwaliteit LK-index Verontreinigende stof
Not available.

Dikte sneeuw

Station Depth Geometrische hoogte

Aardbevingen

Stad Distance Mag. Time & Date
Minimum magnitude displayed is 2.5.

Watertemperatuur langs de kust

Plaats Temperatuur

Stations

Nabije weerstations

Locatie station Temp. Gevoelstemperatuur Dauwpunt Vochtigheid Wind Precip. Hoogte Geactualiseerd Type